sensor_id;sensor_type;location;lat;lon;timestamp;P1;durP1;ratioP1;P2;durP2;ratioP2
46931;SDS011;32670;51.464;11.964;2023-07-13T00:00:23;2.17;;;1.20;;
46931;SDS011;32670;51.464;11.964;2023-07-13T00:02:48;2.77;;;1.20;;
46931;SDS011;32670;51.464;11.964;2023-07-13T00:05:14;2.73;;;1.30;;
46931;SDS011;32670;51.464;11.964;2023-07-13T00:07:39;2.57;;;1.40;;
46931;SDS011;32670;51.464;11.964;2023-07-13T00:10:05;3.30;;;1.37;;
46931;SDS011;32670;51.464;11.964;2023-07-13T00:12:32;3.23;;;1.13;;
46931;SDS011;32670;51.464;11.964;2023-07-13T00:15:01;2.63;;;1.17;;
46931;SDS011;32670;51.464;11.964;2023-07-13T00:17:30;1.93;;;1.10;;
46931;SDS011;32670;51.464;11.964;2023-07-13T00:19:56;3.07;;;1.17;;
46931;SDS011;32670;51.464;11.964;2023-07-13T00:22:22;3.00;;;1.47;;
46931;SDS011;32670;51.464;11.964;2023-07-13T00:24:50;4.57;;;1.40;;
46931;SDS011;32670;51.464;11.964;2023-07-13T00:27:16;5.70;;;1.43;;
46931;SDS011;32670;51.464;11.964;2023-07-13T00:29:42;2.50;;;1.30;;
46931;SDS011;32670;51.464;11.964;2023-07-13T00:32:08;1.70;;;1.10;;
46931;SDS011;32670;51.464;11.964;2023-07-13T00:34:34;1.97;;;1.17;;
46931;SDS011;32670;51.464;11.964;2023-07-13T00:37:00;2.47;;;1.23;;
46931;SDS011;32670;51.464;11.964;2023-07-13T00:39:27;2.20;;;1.10;;
46931;SDS011;32670;51.464;11.964;2023-07-13T00:41:52;2.20;;;1.20;;
46931;SDS011;32670;51.464;11.964;2023-07-13T00:44:18;5.17;;;1.53;;
46931;SDS011;32670;51.464;11.964;2023-07-13T00:46:45;2.90;;;1.30;;
46931;SDS011;32670;51.464;11.964;2023-07-13T00:49:12;3.43;;;1.57;;
46931;SDS011;32670;51.464;11.964;2023-07-13T00:51:44;2.43;;;1.13;;
46931;SDS011;32670;51.464;11.964;2023-07-13T00:54:43;3.07;;;1.30;;
46931;SDS011;32670;51.464;11.964;2023-07-13T00:57:17;2.07;;;1.50;;
46931;SDS011;32670;51.464;11.964;2023-07-13T00:59:47;3.13;;;1.20;;
46931;SDS011;32670;51.464;11.964;2023-07-13T01:02:16;2.77;;;1.37;;
46931;SDS011;32670;51.464;11.964;2023-07-13T01:04:43;1.80;;;1.27;;
46931;SDS011;32670;51.464;11.964;2023-07-13T01:07:09;2.73;;;1.37;;
46931;SDS011;32670;51.464;11.964;2023-07-13T01:09:35;2.00;;;1.10;;
46931;SDS011;32670;51.464;11.964;2023-07-13T01:12:01;2.10;;;1.30;;
46931;SDS011;32670;51.464;11.964;2023-07-13T01:14:28;4.30;;;1.37;;
46931;SDS011;32670;51.464;11.964;2023-07-13T01:16:53;3.37;;;1.30;;
46931;SDS011;32670;51.464;11.964;2023-07-13T01:22:01;2.33;;;1.33;;
46931;SDS011;32670;51.464;11.964;2023-07-13T01:24:27;1.77;;;1.10;;
46931;SDS011;32670;51.464;11.964;2023-07-13T01:26:53;3.63;;;1.20;;
46931;SDS011;32670;51.464;11.964;2023-07-13T01:29:20;2.63;;;1.30;;
46931;SDS011;32670;51.464;11.964;2023-07-13T01:31:46;4.03;;;1.67;;
46931;SDS011;32670;51.464;11.964;2023-07-13T01:34:12;1.77;;;1.20;;
46931;SDS011;32670;51.464;11.964;2023-07-13T01:36:37;2.20;;;1.17;;
46931;SDS011;32670;51.464;11.964;2023-07-13T01:39:03;1.37;;;1.10;;
46931;SDS011;32670;51.464;11.964;2023-07-13T01:41:28;2.83;;;1.30;;
46931;SDS011;32670;51.464;11.964;2023-07-13T01:43:54;3.70;;;1.30;;
46931;SDS011;32670;51.464;11.964;2023-07-13T01:46:19;3.00;;;1.10;;
46931;SDS011;32670;51.464;11.964;2023-07-13T01:48:45;2.57;;;1.47;;
46931;SDS011;32670;51.464;11.964;2023-07-13T01:51:10;3.80;;;1.47;;
46931;SDS011;32670;51.464;11.964;2023-07-13T01:53:35;2.40;;;1.50;;
46931;SDS011;32670;51.464;11.964;2023-07-13T01:56:01;2.27;;;1.50;;
46931;SDS011;32670;51.464;11.964;2023-07-13T01:58:27;2.67;;;1.80;;
46931;SDS011;32670;51.464;11.964;2023-07-13T02:00:52;3.67;;;1.33;;
46931;SDS011;32670;51.464;11.964;2023-07-13T02:03:18;2.03;;;1.27;;
46931;SDS011;32670;51.464;11.964;2023-07-13T02:05:44;2.30;;;1.43;;
46931;SDS011;32670;51.464;11.964;2023-07-13T02:08:10;3.53;;;1.63;;
46931;SDS011;32670;51.464;11.964;2023-07-13T02:10:36;1.90;;;1.80;;
46931;SDS011;32670;51.464;11.964;2023-07-13T02:13:04;4.10;;;1.93;;
46931;SDS011;32670;51.464;11.964;2023-07-13T02:15:31;1.67;;;1.50;;
46931;SDS011;32670;51.464;11.964;2023-07-13T02:17:56;2.10;;;1.40;;
46931;SDS011;32670;51.464;11.964;2023-07-13T02:20:23;2.33;;;1.57;;
46931;SDS011;32670;51.464;11.964;2023-07-13T02:22:49;3.03;;;1.87;;
46931;SDS011;32670;51.464;11.964;2023-07-13T02:25:14;4.80;;;1.67;;
46931;SDS011;32670;51.464;11.964;2023-07-13T02:27:40;3.10;;;1.67;;
46931;SDS011;32670;51.464;11.964;2023-07-13T02:30:06;2.97;;;1.83;;
46931;SDS011;32670;51.464;11.964;2023-07-13T02:32:32;3.07;;;1.50;;
46931;SDS011;32670;51.464;11.964;2023-07-13T02:34:58;2.07;;;1.33;;
46931;SDS011;32670;51.464;11.964;2023-07-13T02:37:24;2.83;;;1.40;;
46931;SDS011;32670;51.464;11.964;2023-07-13T02:39:49;5.07;;;1.50;;
46931;SDS011;32670;51.464;11.964;2023-07-13T02:42:15;2.97;;;1.77;;
46931;SDS011;32670;51.464;11.964;2023-07-13T02:44:40;2.20;;;1.60;;
46931;SDS011;32670;51.464;11.964;2023-07-13T02:47:06;2.50;;;1.73;;
46931;SDS011;32670;51.464;11.964;2023-07-13T02:49:31;2.77;;;2.00;;
46931;SDS011;32670;51.464;11.964;2023-07-13T02:51:57;3.03;;;2.10;;
46931;SDS011;32670;51.464;11.964;2023-07-13T02:54:22;3.63;;;1.80;;
46931;SDS011;32670;51.464;11.964;2023-07-13T02:56:48;3.67;;;1.83;;
46931;SDS011;32670;51.464;11.964;2023-07-13T02:59:14;3.23;;;1.60;;
46931;SDS011;32670;51.464;11.964;2023-07-13T03:01:39;2.27;;;1.60;;
46931;SDS011;32670;51.464;11.964;2023-07-13T03:04:05;3.73;;;1.53;;
46931;SDS011;32670;51.464;11.964;2023-07-13T03:06:31;2.97;;;1.57;;
46931;SDS011;32670;51.464;11.964;2023-07-13T03:08:58;3.37;;;1.77;;
46931;SDS011;32670;51.464;11.964;2023-07-13T03:11:25;4.97;;;1.63;;
46931;SDS011;32670;51.464;11.964;2023-07-13T03:13:51;3.27;;;1.70;;
46931;SDS011;32670;51.464;11.964;2023-07-13T03:16:17;1.80;;;1.50;;
46931;SDS011;32670;51.464;11.964;2023-07-13T03:18:42;4.57;;;1.60;;
46931;SDS011;32670;51.464;11.964;2023-07-13T03:21:08;3.23;;;1.53;;
46931;SDS011;32670;51.464;11.964;2023-07-13T03:23:34;2.47;;;1.50;;
46931;SDS011;32670;51.464;11.964;2023-07-13T03:26:03;3.13;;;1.50;;
46931;SDS011;32670;51.464;11.964;2023-07-13T03:28:30;1.50;;;1.37;;
46931;SDS011;32670;51.464;11.964;2023-07-13T03:31:00;3.03;;;1.50;;
46931;SDS011;32670;51.464;11.964;2023-07-13T03:33:30;2.00;;;1.40;;
46931;SDS011;32670;51.464;11.964;2023-07-13T03:35:56;4.17;;;1.33;;
46931;SDS011;32670;51.464;11.964;2023-07-13T03:38:22;2.37;;;1.40;;
46931;SDS011;32670;51.464;11.964;2023-07-13T03:40:48;2.60;;;1.73;;
46931;SDS011;32670;51.464;11.964;2023-07-13T03:43:13;2.57;;;1.60;;
46931;SDS011;32670;51.464;11.964;2023-07-13T03:45:39;2.40;;;1.50;;
46931;SDS011;32670;51.464;11.964;2023-07-13T03:48:04;2.20;;;1.40;;
46931;SDS011;32670;51.464;11.964;2023-07-13T03:50:30;2.13;;;1.60;;
46931;SDS011;32670;51.464;11.964;2023-07-13T03:52:57;1.47;;;1.33;;
46931;SDS011;32670;51.464;11.964;2023-07-13T03:55:22;2.47;;;1.60;;
46931;SDS011;32670;51.464;11.964;2023-07-13T03:57:52;4.30;;;1.70;;
46931;SDS011;32670;51.464;11.964;2023-07-13T04:00:22;2.70;;;1.60;;
46931;SDS011;32670;51.464;11.964;2023-07-13T04:02:47;3.10;;;1.50;;
46931;SDS011;32670;51.464;11.964;2023-07-13T04:05:14;2.93;;;1.60;;
46931;SDS011;32670;51.464;11.964;2023-07-13T04:07:40;4.20;;;1.70;;
46931;SDS011;32670;51.464;11.964;2023-07-13T04:10:05;2.17;;;1.40;;
46931;SDS011;32670;51.464;11.964;2023-07-13T04:12:31;3.27;;;1.63;;
46931;SDS011;32670;51.464;11.964;2023-07-13T04:14:56;2.30;;;1.57;;
46931;SDS011;32670;51.464;11.964;2023-07-13T04:17:22;2.27;;;1.40;;
46931;SDS011;32670;51.464;11.964;2023-07-13T04:19:47;1.87;;;1.47;;
46931;SDS011;32670;51.464;11.964;2023-07-13T04:22:13;2.90;;;1.60;;
46931;SDS011;32670;51.464;11.964;2023-07-13T04:24:39;2.97;;;1.50;;
46931;SDS011;32670;51.464;11.964;2023-07-13T04:27:05;3.97;;;2.73;;
46931;SDS011;32670;51.464;11.964;2023-07-13T04:29:31;5.53;;;4.43;;
46931;SDS011;32670;51.464;11.964;2023-07-13T04:31:57;7.27;;;6.40;;
46931;SDS011;32670;51.464;11.964;2023-07-13T04:34:23;4.50;;;4.10;;
46931;SDS011;32670;51.464;11.964;2023-07-13T04:36:49;6.87;;;3.47;;
46931;SDS011;32670;51.464;11.964;2023-07-13T04:39:15;7.90;;;3.37;;
46931;SDS011;32670;51.464;11.964;2023-07-13T04:41:40;3.30;;;2.97;;
46931;SDS011;32670;51.464;11.964;2023-07-13T04:44:06;3.60;;;2.27;;
46931;SDS011;32670;51.464;11.964;2023-07-13T04:46:31;3.10;;;2.10;;
46931;SDS011;32670;51.464;11.964;2023-07-13T04:48:57;6.07;;;2.50;;
46931;SDS011;32670;51.464;11.964;2023-07-13T04:51:23;2.17;;;1.97;;
46931;SDS011;32670;51.464;11.964;2023-07-13T04:53:49;5.37;;;2.30;;
46931;SDS011;32670;51.464;11.964;2023-07-13T04:56:14;4.30;;;1.90;;
46931;SDS011;32670;51.464;11.964;2023-07-13T04:58:40;2.53;;;1.97;;
46931;SDS011;32670;51.464;11.964;2023-07-13T05:01:05;4.80;;;2.00;;
46931;SDS011;32670;51.464;11.964;2023-07-13T05:03:31;4.23;;;1.97;;
46931;SDS011;32670;51.464;11.964;2023-07-13T05:06:02;1.83;;;1.70;;
46931;SDS011;32670;51.464;11.964;2023-07-13T05:08:30;3.33;;;2.00;;
46931;SDS011;32670;51.464;11.964;2023-07-13T05:10:56;3.40;;;1.73;;
46931;SDS011;32670;51.464;11.964;2023-07-13T05:13:23;2.77;;;2.07;;
46931;SDS011;32670;51.464;11.964;2023-07-13T05:15:56;4.07;;;2.10;;
46931;SDS011;32670;51.464;11.964;2023-07-13T05:18:26;3.37;;;2.10;;
46931;SDS011;32670;51.464;11.964;2023-07-13T05:20:59;3.97;;;1.87;;
46931;SDS011;32670;51.464;11.964;2023-07-13T05:23:29;2.30;;;1.80;;
46931;SDS011;32670;51.464;11.964;2023-07-13T05:25:56;5.33;;;1.97;;
46931;SDS011;32670;51.464;11.964;2023-07-13T05:28:22;2.33;;;1.83;;
46931;SDS011;32670;51.464;11.964;2023-07-13T05:30:47;4.13;;;1.97;;
46931;SDS011;32670;51.464;11.964;2023-07-13T05:33:14;2.97;;;2.00;;
46931;SDS011;32670;51.464;11.964;2023-07-13T05:35:39;3.37;;;2.30;;
46931;SDS011;32670;51.464;11.964;2023-07-13T05:38:05;5.50;;;2.10;;
46931;SDS011;32670;51.464;11.964;2023-07-13T05:40:31;6.00;;;1.90;;
46931;SDS011;32670;51.464;11.964;2023-07-13T05:42:56;4.50;;;2.00;;
46931;SDS011;32670;51.464;11.964;2023-07-13T05:45:22;5.30;;;2.03;;
46931;SDS011;32670;51.464;11.964;2023-07-13T05:47:47;3.40;;;1.63;;
46931;SDS011;32670;51.464;11.964;2023-07-13T05:50:13;4.27;;;2.00;;
46931;SDS011;32670;51.464;11.964;2023-07-13T05:52:38;3.30;;;2.17;;
46931;SDS011;32670;51.464;11.964;2023-07-13T05:55:04;3.33;;;2.00;;
46931;SDS011;32670;51.464;11.964;2023-07-13T05:57:30;5.43;;;2.00;;
46931;SDS011;32670;51.464;11.964;2023-07-13T05:59:56;2.83;;;1.83;;
46931;SDS011;32670;51.464;11.964;2023-07-13T06:02:21;3.67;;;1.73;;
46931;SDS011;32670;51.464;11.964;2023-07-13T06:04:47;4.83;;;1.83;;
46931;SDS011;32670;51.464;11.964;2023-07-13T06:07:12;4.63;;;1.77;;
46931;SDS011;32670;51.464;11.964;2023-07-13T06:09:38;3.03;;;1.90;;
46931;SDS011;32670;51.464;11.964;2023-07-13T06:12:03;13.93;;;2.03;;
46931;SDS011;32670;51.464;11.964;2023-07-13T06:14:29;8.33;;;1.97;;
46931;SDS011;32670;51.464;11.964;2023-07-13T06:16:55;11.93;;;2.00;;
46931;SDS011;32670;51.464;11.964;2023-07-13T06:19:20;3.80;;;1.47;;
46931;SDS011;32670;51.464;11.964;2023-07-13T06:21:46;5.33;;;1.77;;
46931;SDS011;32670;51.464;11.964;2023-07-13T06:24:11;4.07;;;1.63;;
46931;SDS011;32670;51.464;11.964;2023-07-13T06:26:37;4.90;;;1.67;;
46931;SDS011;32670;51.464;11.964;2023-07-13T06:29:02;2.43;;;1.70;;
46931;SDS011;32670;51.464;11.964;2023-07-13T06:31:28;3.90;;;1.70;;
46931;SDS011;32670;51.464;11.964;2023-07-13T06:33:53;4.30;;;1.70;;
46931;SDS011;32670;51.464;11.964;2023-07-13T06:36:19;4.17;;;1.90;;
46931;SDS011;32670;51.464;11.964;2023-07-13T06:38:44;6.23;;;1.60;;
46931;SDS011;32670;51.464;11.964;2023-07-13T06:41:10;3.07;;;1.80;;
46931;SDS011;32670;51.464;11.964;2023-07-13T06:43:37;2.70;;;1.70;;
46931;SDS011;32670;51.464;11.964;2023-07-13T06:46:03;3.57;;;1.70;;
46931;SDS011;32670;51.464;11.964;2023-07-13T06:48:29;3.60;;;1.80;;
46931;SDS011;32670;51.464;11.964;2023-07-13T06:50:54;4.70;;;1.67;;
46931;SDS011;32670;51.464;11.964;2023-07-13T06:53:21;3.40;;;1.50;;
46931;SDS011;32670;51.464;11.964;2023-07-13T06:55:47;3.30;;;1.50;;
46931;SDS011;32670;51.464;11.964;2023-07-13T06:58:14;3.10;;;1.80;;
46931;SDS011;32670;51.464;11.964;2023-07-13T07:00:41;4.20;;;1.37;;
46931;SDS011;32670;51.464;11.964;2023-07-13T07:03:06;3.30;;;1.67;;
46931;SDS011;32670;51.464;11.964;2023-07-13T07:05:32;2.30;;;1.33;;
46931;SDS011;32670;51.464;11.964;2023-07-13T07:07:58;3.73;;;1.40;;
46931;SDS011;32670;51.464;11.964;2023-07-13T07:10:24;4.07;;;1.50;;
46931;SDS011;32670;51.464;11.964;2023-07-13T07:12:49;5.67;;;1.60;;
46931;SDS011;32670;51.464;11.964;2023-07-13T07:15:15;3.07;;;1.40;;
46931;SDS011;32670;51.464;11.964;2023-07-13T07:17:41;3.07;;;1.50;;
46931;SDS011;32670;51.464;11.964;2023-07-13T07:20:07;2.93;;;1.57;;
46931;SDS011;32670;51.464;11.964;2023-07-13T07:22:33;3.83;;;1.60;;
46931;SDS011;32670;51.464;11.964;2023-07-13T07:24:58;13.00;;;1.77;;
46931;SDS011;32670;51.464;11.964;2023-07-13T07:27:24;8.10;;;2.27;;
46931;SDS011;32670;51.464;11.964;2023-07-13T07:29:49;11.03;;;2.13;;
46931;SDS011;32670;51.464;11.964;2023-07-13T07:32:15;10.77;;;2.00;;
46931;SDS011;32670;51.464;11.964;2023-07-13T07:34:41;8.27;;;1.87;;
46931;SDS011;32670;51.464;11.964;2023-07-13T07:37:06;12.00;;;2.07;;
46931;SDS011;32670;51.464;11.964;2023-07-13T07:39:36;6.33;;;1.83;;
46931;SDS011;32670;51.464;11.964;2023-07-13T07:42:02;8.23;;;1.63;;
46931;SDS011;32670;51.464;11.964;2023-07-13T07:44:27;7.33;;;1.50;;
46931;SDS011;32670;51.464;11.964;2023-07-13T07:46:53;4.93;;;1.83;;
46931;SDS011;32670;51.464;11.964;2023-07-13T07:49:19;8.47;;;1.83;;
46931;SDS011;32670;51.464;11.964;2023-07-13T07:51:45;3.83;;;1.40;;
46931;SDS011;32670;51.464;11.964;2023-07-13T07:54:10;3.77;;;1.40;;
46931;SDS011;32670;51.464;11.964;2023-07-13T07:56:36;6.13;;;1.70;;
46931;SDS011;32670;51.464;11.964;2023-07-13T07:59:01;5.03;;;1.60;;
46931;SDS011;32670;51.464;11.964;2023-07-13T08:01:27;7.10;;;2.00;;
46931;SDS011;32670;51.464;11.964;2023-07-13T08:03:52;7.33;;;1.90;;
46931;SDS011;32670;51.464;11.964;2023-07-13T08:06:18;6.10;;;1.63;;
46931;SDS011;32670;51.464;11.964;2023-07-13T08:08:47;4.53;;;1.40;;
46931;SDS011;32670;51.464;11.964;2023-07-13T08:11:12;3.10;;;1.70;;
46931;SDS011;32670;51.464;11.964;2023-07-13T08:13:38;4.83;;;1.83;;
46931;SDS011;32670;51.464;11.964;2023-07-13T08:16:04;2.17;;;1.30;;
46931;SDS011;32670;51.464;11.964;2023-07-13T08:18:31;3.13;;;1.50;;
46931;SDS011;32670;51.464;11.964;2023-07-13T08:20:56;4.30;;;1.40;;
46931;SDS011;32670;51.464;11.964;2023-07-13T08:23:23;4.73;;;2.00;;
46931;SDS011;32670;51.464;11.964;2023-07-13T08:25:52;4.80;;;1.57;;
46931;SDS011;32670;51.464;11.964;2023-07-13T08:28:19;2.30;;;1.33;;
46931;SDS011;32670;51.464;11.964;2023-07-13T08:30:46;1.90;;;1.27;;
46931;SDS011;32670;51.464;11.964;2023-07-13T08:33:16;3.80;;;1.60;;
46931;SDS011;32670;51.464;11.964;2023-07-13T08:35:42;3.20;;;1.50;;
46931;SDS011;32670;51.464;11.964;2023-07-13T08:38:14;2.10;;;1.30;;
46931;SDS011;32670;51.464;11.964;2023-07-13T08:40:40;5.60;;;1.73;;
46931;SDS011;32670;51.464;11.964;2023-07-13T08:43:09;3.63;;;1.80;;
46931;SDS011;32670;51.464;11.964;2023-07-13T08:45:43;3.00;;;1.70;;
46931;SDS011;32670;51.464;11.964;2023-07-13T08:50:49;2.93;;;1.70;;
46931;SDS011;32670;51.464;11.964;2023-07-13T08:53:21;2.47;;;1.70;;
46931;SDS011;32670;51.464;11.964;2023-07-13T08:55:51;4.50;;;1.80;;
46931;SDS011;32670;51.464;11.964;2023-07-13T08:58:22;2.80;;;1.80;;
46931;SDS011;32670;51.464;11.964;2023-07-13T09:01:10;3.43;;;1.70;;
46931;SDS011;32670;51.464;11.964;2023-07-13T09:03:47;3.97;;;1.70;;
46931;SDS011;32670;51.464;11.964;2023-07-13T09:06:31;2.10;;;1.80;;
46931;SDS011;32670;51.464;11.964;2023-07-13T09:09:14;2.73;;;1.80;;
46931;SDS011;32670;51.464;11.964;2023-07-13T09:11:56;2.27;;;1.70;;
46931;SDS011;32670;51.464;11.964;2023-07-13T09:14:34;3.00;;;1.77;;
46931;SDS011;32670;51.464;11.964;2023-07-13T09:17:12;3.10;;;1.70;;
46931;SDS011;32670;51.464;11.964;2023-07-13T09:19:42;2.47;;;1.60;;
46931;SDS011;32670;51.464;11.964;2023-07-13T09:22:12;2.20;;;1.60;;
46931;SDS011;32670;51.464;11.964;2023-07-13T09:27:35;2.70;;;1.70;;
46931;SDS011;32670;51.464;11.964;2023-07-13T09:32:43;2.70;;;1.57;;
46931;SDS011;32670;51.464;11.964;2023-07-13T09:35:15;3.33;;;1.80;;
46931;SDS011;32670;51.464;11.964;2023-07-13T09:37:44;2.27;;;1.80;;
46931;SDS011;32670;51.464;11.964;2023-07-13T09:40:11;2.43;;;1.70;;
46931;SDS011;32670;51.464;11.964;2023-07-13T09:42:57;2.23;;;1.70;;
46931;SDS011;32670;51.464;11.964;2023-07-13T09:45:27;1.80;;;1.57;;
46931;SDS011;32670;51.464;11.964;2023-07-13T09:47:58;3.20;;;1.90;;
46931;SDS011;32670;51.464;11.964;2023-07-13T09:50:38;1.60;;;1.30;;
46931;SDS011;32670;51.464;11.964;2023-07-13T09:53:04;1.80;;;1.40;;
46931;SDS011;32670;51.464;11.964;2023-07-13T09:55:37;2.03;;;1.63;;
46931;SDS011;32670;51.464;11.964;2023-07-13T09:58:06;3.83;;;1.90;;
46931;SDS011;32670;51.464;11.964;2023-07-13T10:00:56;3.13;;;1.50;;
46931;SDS011;32670;51.464;11.964;2023-07-13T10:03:25;1.83;;;1.60;;
46931;SDS011;32670;51.464;11.964;2023-07-13T10:05:52;3.07;;;1.50;;
46931;SDS011;32670;51.464;11.964;2023-07-13T10:08:26;2.27;;;1.73;;
46931;SDS011;32670;51.464;11.964;2023-07-13T10:10:58;3.80;;;1.70;;
46931;SDS011;32670;51.464;11.964;2023-07-13T10:13:30;3.37;;;1.90;;
46931;SDS011;32670;51.464;11.964;2023-07-13T10:16:00;2.80;;;1.70;;
46931;SDS011;32670;51.464;11.964;2023-07-13T10:18:26;2.53;;;1.73;;
46931;SDS011;32670;51.464;11.964;2023-07-13T10:21:50;2.00;;;1.70;;
46931;SDS011;32670;51.464;11.964;2023-07-13T10:23:40;2.17;;;1.83;;
46931;SDS011;32670;51.464;11.964;2023-07-13T10:26:09;2.37;;;1.70;;
46931;SDS011;32670;51.464;11.964;2023-07-13T10:28:41;2.97;;;1.80;;
46931;SDS011;32670;51.464;11.964;2023-07-13T10:31:10;2.30;;;1.80;;
46931;SDS011;32670;51.464;11.964;2023-07-13T10:33:38;2.10;;;1.90;;
46931;SDS011;32670;51.464;11.964;2023-07-13T10:36:08;3.17;;;1.77;;
46931;SDS011;32670;51.464;11.964;2023-07-13T10:38:57;3.13;;;2.00;;
46931;SDS011;32670;51.464;11.964;2023-07-13T10:41:26;1.80;;;1.60;;
46931;SDS011;32670;51.464;11.964;2023-07-13T10:43:55;2.00;;;1.80;;
46931;SDS011;32670;51.464;11.964;2023-07-13T10:46:22;2.20;;;1.80;;
46931;SDS011;32670;51.464;11.964;2023-07-13T10:48:53;2.33;;;2.13;;
46931;SDS011;32670;51.464;11.964;2023-07-13T10:51:23;3.60;;;2.03;;
46931;SDS011;32670;51.464;11.964;2023-07-13T10:54:10;2.00;;;1.77;;
46931;SDS011;32670;51.464;11.964;2023-07-13T10:56:52;2.30;;;2.03;;
46931;SDS011;32670;51.464;11.964;2023-07-13T10:59:33;2.13;;;1.80;;
46931;SDS011;32670;51.464;11.964;2023-07-13T11:02:06;2.33;;;1.87;;
46931;SDS011;32670;51.464;11.964;2023-07-13T11:04:40;2.13;;;1.87;;
46931;SDS011;32670;51.464;11.964;2023-07-13T11:07:10;2.20;;;2.00;;
46931;SDS011;32670;51.464;11.964;2023-07-13T11:09:44;2.27;;;2.00;;
46931;SDS011;32670;51.464;11.964;2023-07-13T11:28:03;2.03;;;1.80;;
46931;SDS011;32670;51.464;11.964;2023-07-13T11:30:43;1.97;;;1.77;;
46931;SDS011;32670;51.464;11.964;2023-07-13T11:33:14;2.90;;;1.90;;
46931;SDS011;32670;51.464;11.964;2023-07-13T11:38:23;2.30;;;2.10;;
46931;SDS011;32670;51.464;11.964;2023-07-13T11:41:04;2.20;;;2.10;;
46931;SDS011;32670;51.464;11.964;2023-07-13T11:43:41;2.37;;;2.17;;
46931;SDS011;32670;51.464;11.964;2023-07-13T11:46:20;2.20;;;2.00;;
46931;SDS011;32670;51.464;11.964;2023-07-13T11:48:48;1.97;;;1.83;;
46931;SDS011;32670;51.464;11.964;2023-07-13T11:51:25;2.50;;;2.30;;
46931;SDS011;32670;51.464;11.964;2023-07-13T11:53:53;2.40;;;2.20;;
46931;SDS011;32670;51.464;11.964;2023-07-13T11:56:21;2.50;;;2.30;;
46931;SDS011;32670;51.464;11.964;2023-07-13T11:58:48;2.30;;;2.10;;
46931;SDS011;32670;51.464;11.964;2023-07-13T12:01:17;2.60;;;2.30;;
46931;SDS011;32670;51.464;11.964;2023-07-13T12:03:50;2.30;;;2.10;;
46931;SDS011;32670;51.464;11.964;2023-07-13T12:06:35;4.67;;;2.70;;
46931;SDS011;32670;51.464;11.964;2023-07-13T12:09:13;3.03;;;2.70;;
46931;SDS011;32670;51.464;11.964;2023-07-13T12:11:43;2.70;;;2.50;;
46931;SDS011;32670;51.464;11.964;2023-07-13T12:14:13;2.90;;;2.60;;
46931;SDS011;32670;51.464;11.964;2023-07-13T12:16:43;2.70;;;2.50;;
46931;SDS011;32670;51.464;11.964;2023-07-13T12:19:20;3.57;;;2.60;;
46931;SDS011;32670;51.464;11.964;2023-07-13T12:21:48;4.43;;;3.20;;
46931;SDS011;32670;51.464;11.964;2023-07-13T12:24:16;3.80;;;3.20;;
46931;SDS011;32670;51.464;11.964;2023-07-13T12:26:43;2.97;;;2.67;;
46931;SDS011;32670;51.464;11.964;2023-07-13T12:29:15;3.53;;;3.20;;
46931;SDS011;32670;51.464;11.964;2023-07-13T12:31:43;3.40;;;3.10;;
46931;SDS011;32670;51.464;11.964;2023-07-13T12:34:12;3.57;;;3.27;;
46931;SDS011;32670;51.464;11.964;2023-07-13T12:36:49;3.17;;;2.83;;
46931;SDS011;32670;51.464;11.964;2023-07-13T12:39:21;3.80;;;3.50;;
46931;SDS011;32670;51.464;11.964;2023-07-13T12:42:23;3.30;;;3.00;;
46931;SDS011;32670;51.464;11.964;2023-07-13T12:44:53;3.27;;;2.70;;
46931;SDS011;32670;51.464;11.964;2023-07-13T12:47:27;3.70;;;3.20;;
46931;SDS011;32670;51.464;11.964;2023-07-13T12:49:54;3.23;;;2.90;;
46931;SDS011;32670;51.464;11.964;2023-07-13T12:52:23;3.40;;;2.93;;
46931;SDS011;32670;51.464;11.964;2023-07-13T12:54:56;3.93;;;3.20;;
46931;SDS011;32670;51.464;11.964;2023-07-13T12:57:24;4.27;;;3.77;;
46931;SDS011;32670;51.464;11.964;2023-07-13T12:59:51;4.20;;;3.70;;
46931;SDS011;32670;51.464;11.964;2023-07-13T13:04:58;3.97;;;3.60;;
46931;SDS011;32670;51.464;11.964;2023-07-13T13:07:24;4.97;;;3.90;;
46931;SDS011;32670;51.464;11.964;2023-07-13T13:09:51;8.20;;;4.17;;
46931;SDS011;32670;51.464;11.964;2023-07-13T13:12:18;6.37;;;5.43;;
46931;SDS011;32670;51.464;11.964;2023-07-13T13:14:44;3.73;;;3.27;;
46931;SDS011;32670;51.464;11.964;2023-07-13T13:17:20;10.23;;;3.47;;
46931;SDS011;32670;51.464;11.964;2023-07-13T13:19:49;5.27;;;3.43;;
46931;SDS011;32670;51.464;11.964;2023-07-13T13:22:18;4.13;;;3.37;;
46931;SDS011;32670;51.464;11.964;2023-07-13T13:24:43;3.83;;;3.53;;
46931;SDS011;32670;51.464;11.964;2023-07-13T13:27:14;3.93;;;3.50;;
46931;SDS011;32670;51.464;11.964;2023-07-13T13:29:44;4.93;;;3.80;;
46931;SDS011;32670;51.464;11.964;2023-07-13T13:32:11;4.03;;;3.70;;
46931;SDS011;32670;51.464;11.964;2023-07-13T13:34:38;4.87;;;3.37;;
46931;SDS011;32670;51.464;11.964;2023-07-13T13:37:04;4.80;;;4.40;;
46931;SDS011;32670;51.464;11.964;2023-07-13T13:39:53;6.53;;;4.70;;
46931;SDS011;32670;51.464;11.964;2023-07-13T13:42:20;6.03;;;4.20;;
46931;SDS011;32670;51.464;11.964;2023-07-13T13:44:47;5.03;;;4.63;;
46931;SDS011;32670;51.464;11.964;2023-07-13T13:50:12;6.40;;;5.80;;
46931;SDS011;32670;51.464;11.964;2023-07-13T13:52:41;6.43;;;5.53;;
46931;SDS011;32670;51.464;11.964;2023-07-13T13:55:17;7.43;;;6.10;;
46931;SDS011;32670;51.464;11.964;2023-07-13T13:57:45;5.57;;;5.07;;
46931;SDS011;32670;51.464;11.964;2023-07-13T14:00:11;5.90;;;4.47;;
46931;SDS011;32670;51.464;11.964;2023-07-13T14:02:39;5.97;;;5.37;;
46931;SDS011;32670;51.464;11.964;2023-07-13T14:05:06;5.23;;;4.67;;
46931;SDS011;32670;51.464;11.964;2023-07-13T14:07:36;4.93;;;4.50;;
46931;SDS011;32670;51.464;11.964;2023-07-13T14:10:02;5.60;;;5.00;;
46931;SDS011;32670;51.464;11.964;2023-07-13T14:12:34;5.63;;;5.10;;
46931;SDS011;32670;51.464;11.964;2023-07-13T14:15:00;7.13;;;6.43;;
46931;SDS011;32670;51.464;11.964;2023-07-13T14:17:26;5.70;;;5.03;;
46931;SDS011;32670;51.464;11.964;2023-07-13T14:19:52;7.27;;;6.57;;
46931;SDS011;32670;51.464;11.964;2023-07-13T14:22:23;6.07;;;5.47;;
46931;SDS011;32670;51.464;11.964;2023-07-13T14:24:54;4.97;;;4.50;;
46931;SDS011;32670;51.464;11.964;2023-07-13T14:27:22;4.73;;;4.07;;
46931;SDS011;32670;51.464;11.964;2023-07-13T14:29:47;4.40;;;3.57;;
46931;SDS011;32670;51.464;11.964;2023-07-13T14:32:13;3.93;;;3.53;;
46931;SDS011;32670;51.464;11.964;2023-07-13T14:34:39;3.60;;;3.30;;
46931;SDS011;32670;51.464;11.964;2023-07-13T14:37:05;4.57;;;2.97;;
46931;SDS011;32670;51.464;11.964;2023-07-13T14:39:36;4.07;;;3.30;;
46931;SDS011;32670;51.464;11.964;2023-07-13T14:42:03;5.87;;;3.90;;
46931;SDS011;32670;51.464;11.964;2023-07-13T14:44:29;5.53;;;3.40;;
46931;SDS011;32670;51.464;11.964;2023-07-13T14:46:56;3.03;;;2.73;;
46931;SDS011;32670;51.464;11.964;2023-07-13T14:49:30;2.80;;;2.60;;
46931;SDS011;32670;51.464;11.964;2023-07-13T14:52:00;3.27;;;2.97;;
46931;SDS011;32670;51.464;11.964;2023-07-13T14:54:28;3.13;;;2.60;;
46931;SDS011;32670;51.464;11.964;2023-07-13T14:56:54;3.00;;;2.70;;
46931;SDS011;32670;51.464;11.964;2023-07-13T14:59:19;3.83;;;3.30;;
46931;SDS011;32670;51.464;11.964;2023-07-13T15:01:45;4.27;;;3.00;;
46931;SDS011;32670;51.464;11.964;2023-07-13T15:04:12;3.00;;;2.70;;
46931;SDS011;32670;51.464;11.964;2023-07-13T15:06:57;6.60;;;3.83;;
46931;SDS011;32670;51.464;11.964;2023-07-13T15:09:24;6.23;;;3.50;;
46931;SDS011;32670;51.464;11.964;2023-07-13T15:11:51;5.33;;;2.90;;
46931;SDS011;32670;51.464;11.964;2023-07-13T15:14:17;3.80;;;3.50;;